メインページ
METAR-TAF:

METAR-TAF

空港 :

フォス・ド・イグアス, パラナ州, ブラジル

フォス・ド・イグアス国際空港

緯度: 25-31S, 経度: 054-35W, 海抜: 180m

現時点の気象観測

当レポートは27分前の06:00(UTC)に作成
東/南東の風 3kt
気温 23°C
湿度 94%
気圧 1012 hPa
視程10km以上
1,500メートル以下は雲なし、積乱雲なし

METAR: SBFI 140600Z 11003KT CAVOK 23/22 Q1012

時間: 04:27 (06:27 UTC)

予報

当レポートは3時間27分前の03:00(UTC)に作成
予報は14日の 06時(UTC)から 15日の 06時(UTC)まで有効
東/南東の風 5kt
視程10km以上
1,500メートル以下は雲なし、積乱雲なし
14日の 13時(UTC)から 14日の 15時(UTC)まで徐々に
の風 8kt
視程10km以上
高度4000ftの雲はほとんどない
14日の 21時(UTC)から 14日の 23時(UTC)まで徐々に
の風 5kt
視程10km以上
1,500メートル以下は雲なし、積乱雲なし

TAF: SBFI 140300Z 1406/1506 12005KT CAVOK TN22/1408Z TX35/1418Z BECMG 1413/1415 35008KT 9999 FEW040 BECMG 1421/1423 09005KT CAVOK RMK PER

4,000以上の空港の気象観測と天気予報(METAR報とTAF報)

利用可能な観測所は地図上に黄色い丸と赤い丸で示す。

丸の上にカーソルを重ねると観測所名を参照できる。

次にクリックすると気象観測と天気予報を参照できる。

マップの切り替え:黒色「×」印の緑ボタンをクリックして拡大、「-」印の緑ボタンをクリックして縮小、緑色の三角印をクリックして隣りの地図に切り替え


METAR-TAF: